createdAt,value
2023-01-18T00:01:16.717Z,98346.72
2023-01-18T00:03:43.868Z,98341.97
2023-01-18T00:06:11.805Z,98342.34
2023-01-18T00:08:40.244Z,98342.22
2023-01-18T00:11:12.666Z,98348.22
2023-01-18T00:13:40.052Z,98348.50
2023-01-18T00:16:11.417Z,98353.34
2023-01-18T00:18:38.562Z,98356.72
2023-01-18T00:21:11.137Z,98355.56
2023-01-18T00:23:38.737Z,98343.41
2023-01-18T00:26:08.171Z,98334.19
2023-01-18T00:28:36.114Z,98326.63
2023-01-18T00:31:10.178Z,98329.09
2023-01-18T00:33:37.609Z,98328.44
2023-01-18T00:36:05.335Z,98325.81
2023-01-18T00:38:32.319Z,98330.84
2023-01-18T00:40:59.514Z,98322.56
2023-01-18T00:43:41.790Z,98315.59
2023-01-18T00:46:15.079Z,98319.00
2023-01-18T00:48:44.233Z,98314.75
2023-01-18T00:51:16.329Z,98320.56
2023-01-18T00:53:44.464Z,98313.22
2023-01-18T00:56:14.368Z,98303.59
2023-01-18T00:58:41.719Z,98304.06
2023-01-18T01:01:10.290Z,98296.56
2023-01-18T01:03:57.185Z,98293.06
2023-01-18T01:06:47.038Z,98295.47
2023-01-18T01:09:21.802Z,98292.34
2023-01-18T01:12:08.157Z,98296.25
2023-01-18T01:14:56.727Z,98287.28
2023-01-18T01:17:42.373Z,98289.22
2023-01-18T01:20:28.786Z,98288.13
2023-01-18T01:23:14.366Z,98280.50
2023-01-18T01:26:00.585Z,98273.09
2023-01-18T01:28:27.512Z,98269.72
2023-01-18T01:31:02.488Z,98255.44
2023-01-18T01:33:30.694Z,98253.19
2023-01-18T01:35:59.681Z,98261.00
2023-01-18T01:38:27.275Z,98257.41
2023-01-18T01:41:06.939Z,98264.41
2023-01-18T01:43:49.115Z,98229.31
2023-01-18T01:46:38.241Z,98234.50
2023-01-18T01:49:08.800Z,98254.47
2023-01-18T01:51:39.947Z,98267.59
2023-01-18T01:54:13.455Z,98257.09
2023-01-18T01:56:42.232Z,98259.53
2023-01-18T01:59:10.433Z,98254.63
2023-01-18T02:01:39.181Z,98247.56
2023-01-18T02:04:06.399Z,98253.13
2023-01-18T02:06:36.883Z,98252.50
2023-01-18T02:09:08.456Z,98244.19
2023-01-18T02:11:36.338Z,98234.44
2023-01-18T02:14:08.657Z,98237.38
2023-01-18T02:17:11.091Z,98248.72
2023-01-18T02:20:19.725Z,98241.84
2023-01-18T02:23:20.256Z,98224.91
2023-01-18T02:26:08.552Z,98231.72
2023-01-18T02:28:37.803Z,98229.25
2023-01-18T02:31:04.860Z,98217.03
2023-01-18T02:33:47.105Z,98225.72
2023-01-18T02:36:27.761Z,98225.56
2023-01-18T02:39:00.433Z,98213.03
2023-01-18T02:41:55.072Z,98215.72
2023-01-18T02:44:49.015Z,98201.91
2023-01-18T02:47:16.682Z,98203.81
2023-01-18T02:49:43.626Z,98190.38
2023-01-18T02:52:39.681Z,98182.31
2023-01-18T02:55:14.418Z,98190.22
2023-01-18T02:57:41.319Z,98188.69
2023-01-18T03:00:11.643Z,98203.28
2023-01-18T03:02:40.978Z,98208.91
2023-01-18T03:05:10.719Z,98213.78
2023-01-18T03:07:54.955Z,98205.97
2023-01-18T03:10:26.192Z,98213.09
2023-01-18T03:13:05.886Z,98220.91
2023-01-18T03:15:43.211Z,98224.38
2023-01-18T03:18:37.268Z,98209.06
2023-01-18T03:21:08.226Z,98204.41
2023-01-18T03:23:40.111Z,98204.41
2023-01-18T03:26:08.785Z,98198.22
2023-01-18T03:29:02.509Z,98183.84
2023-01-18T03:31:57.714Z,98188.75
2023-01-18T03:34:32.739Z,98196.41
2023-01-18T03:37:08.447Z,98193.84
2023-01-18T03:39:39.264Z,98185.72
2023-01-18T03:42:20.050Z,98175.22
2023-01-18T03:44:56.434Z,98173.03
2023-01-18T03:47:23.488Z,98163.13
2023-01-18T03:49:50.983Z,98165.41
2023-01-18T03:52:29.165Z,98179.66
2023-01-18T03:55:21.527Z,98174.66
2023-01-18T03:57:56.128Z,98177.13
2023-01-18T04:00:23.349Z,98180.34
2023-01-18T04:02:50.819Z,98164.97
2023-01-18T04:05:19.038Z,98168.38
2023-01-18T04:07:45.990Z,98164.66
2023-01-18T04:10:13.002Z,98169.50
2023-01-18T04:12:39.945Z,98177.06
2023-01-18T04:15:07.412Z,98177.06
2023-01-18T04:17:34.325Z,98174.25
2023-01-18T04:20:01.345Z,98158.81
2023-01-18T04:22:28.250Z,98154.72
2023-01-18T04:24:55.177Z,98158.38
2023-01-18T04:27:24.348Z,98162.94
2023-01-18T04:29:52.220Z,98158.56
2023-01-18T04:32:19.150Z,98153.38
2023-01-18T04:34:46.052Z,98152.25
2023-01-18T04:37:12.912Z,98146.75
2023-01-18T04:39:39.970Z,98150.31
2023-01-18T04:42:07.133Z,98148.78
2023-01-18T04:44:34.194Z,98159.31
2023-01-18T04:47:01.304Z,98153.28
2023-01-18T04:49:28.765Z,98149.88
2023-01-18T04:51:55.934Z,98145.47
2023-01-18T04:54:23.603Z,98123.84
2023-01-18T04:56:52.169Z,98125.53
2023-01-18T04:59:19.392Z,98114.84
2023-01-18T05:01:46.901Z,98119.16
2023-01-18T05:04:14.819Z,98105.78
2023-01-18T05:06:42.239Z,98117.63
2023-01-18T05:09:12.648Z,98116.53
2023-01-18T05:11:39.993Z,98104.66
2023-01-18T05:14:07.449Z,98104.47
2023-01-18T05:16:35.242Z,98113.13
2023-01-18T05:19:02.656Z,98103.31
2023-01-18T05:21:30.093Z,98102.81
2023-01-18T05:23:57.415Z,98099.06
2023-01-18T05:26:25.056Z,98102.44
2023-01-18T05:28:58.090Z,98098.88
2023-01-18T05:31:26.201Z,98099.38
2023-01-18T05:33:53.581Z,98100.03
2023-01-18T05:36:20.783Z,98096.91
2023-01-18T05:38:48.081Z,98089.81
2023-01-18T05:41:15.656Z,98097.59
2023-01-18T05:43:42.937Z,98086.22
2023-01-18T05:46:10.715Z,98077.41
2023-01-18T05:48:38.251Z,98087.25
2023-01-18T05:51:10.561Z,98095.50
2023-01-18T05:53:38.736Z,98083.41
2023-01-18T05:56:08.488Z,98092.78
2023-01-18T05:58:36.107Z,98092.06
2023-01-18T06:01:03.849Z,98107.34
2023-01-18T06:03:31.577Z,98104.97
2023-01-18T06:05:59.625Z,98116.28
2023-01-18T06:08:26.897Z,98103.78
2023-01-18T06:10:59.731Z,98091.47
2023-01-18T06:13:29.646Z,98092.31
2023-01-18T06:15:58.511Z,98081.25
2023-01-18T06:18:27.541Z,98076.16
2023-01-18T06:21:01.192Z,98069.81
2023-01-18T06:23:30.202Z,98088.31
2023-01-18T06:25:57.992Z,98084.56
2023-01-18T06:28:25.615Z,98085.25
2023-01-18T06:30:55.293Z,98078.94
2023-01-18T06:33:24.430Z,98080.31
2023-01-18T06:35:53.064Z,98073.16
2023-01-18T06:38:21.242Z,98079.94
2023-01-18T06:40:48.542Z,98062.19
2023-01-18T06:43:17.795Z,98063.59
2023-01-18T06:45:46.346Z,98063.75
2023-01-18T06:48:13.625Z,98063.13
2023-01-18T06:50:41.151Z,98061.34
2023-01-18T06:53:08.547Z,98035.78
2023-01-18T06:55:36.202Z,98052.06
2023-01-18T06:58:03.709Z,98052.91
2023-01-18T07:00:31.416Z,98034.19
2023-01-18T07:02:59.340Z,98035.97
2023-01-18T07:05:27.005Z,98041.81
2023-01-18T07:07:53.992Z,98034.94
2023-01-18T07:10:21.136Z,98045.78
2023-01-18T07:12:49.062Z,98050.09
2023-01-18T07:15:21.977Z,98058.75
2023-01-18T07:17:51.058Z,98051.25
2023-01-18T07:20:20.130Z,98054.44
2023-01-18T07:22:52.257Z,98043.34
2023-01-18T07:25:21.492Z,98052.63
2023-01-18T07:27:49.712Z,98030.72
2023-01-18T07:30:17.900Z,98050.66
2023-01-18T07:32:49.935Z,98030.44
2023-01-18T07:35:20.494Z,98026.75
2023-01-18T07:37:53.508Z,98044.00
2023-01-18T07:40:22.122Z,98039.09
2023-01-18T07:42:56.399Z,98042.38
2023-01-18T07:45:24.286Z,98032.88
2023-01-18T07:47:53.707Z,98042.84
2023-01-18T07:50:22.819Z,98023.63
2023-01-18T07:52:50.264Z,98030.25
2023-01-18T07:55:17.621Z,98027.59
2023-01-18T07:57:45.208Z,98032.19
2023-01-18T08:00:14.759Z,98033.88
2023-01-18T08:02:42.181Z,98040.97
2023-01-18T08:05:10.822Z,98041.06
2023-01-18T08:07:38.197Z,98054.63
2023-01-18T08:10:06.182Z,98046.81
2023-01-18T08:12:33.536Z,98041.34
2023-01-18T08:15:00.956Z,98035.69
2023-01-18T08:17:29.971Z,98031.06
2023-01-18T08:19:57.787Z,98028.03
2023-01-18T08:22:25.193Z,98027.34
2023-01-18T08:24:53.011Z,98014.66
2023-01-18T08:27:20.551Z,98010.66
2023-01-18T08:29:48.347Z,98018.66
2023-01-18T08:32:16.020Z,98011.97
2023-01-18T08:34:43.737Z,98002.25
2023-01-18T08:37:12.227Z,98015.97
2023-01-18T08:39:39.563Z,98016.81
2023-01-18T08:42:06.799Z,98015.38
2023-01-18T08:44:33.987Z,97996.41
2023-01-18T08:47:01.876Z,98001.16
2023-01-18T08:49:29.781Z,97996.44
2023-01-18T08:51:58.379Z,97996.25
2023-01-18T08:54:26.063Z,97966.34
2023-01-18T08:56:53.683Z,97980.63
2023-01-18T08:59:21.373Z,97973.53
2023-01-18T09:01:49.426Z,97980.84
2023-01-18T09:04:17.150Z,97981.47
2023-01-18T09:06:45.005Z,97987.19
2023-01-18T09:09:13.281Z,97981.06
2023-01-18T09:11:40.430Z,97971.75
2023-01-18T09:14:07.870Z,97963.41
2023-01-18T09:16:35.307Z,97958.72
2023-01-18T09:19:06.642Z,97937.38
2023-01-18T09:21:34.725Z,97953.44
2023-01-18T09:24:02.512Z,97946.25
2023-01-18T09:26:30.794Z,97929.78
2023-01-18T09:28:58.390Z,97945.91
2023-01-18T09:31:28.053Z,97954.13
2023-01-18T09:34:00.975Z,97947.31
2023-01-18T09:36:41.485Z,97934.00
2023-01-18T09:39:08.901Z,97938.31
2023-01-18T09:41:52.782Z,97926.94
2023-01-18T09:44:32.455Z,97930.94
2023-01-18T09:47:07.808Z,97931.34
2023-01-18T09:49:55.601Z,97929.88
2023-01-18T09:52:32.270Z,97929.47
2023-01-18T09:55:28.933Z,97931.84
2023-01-18T09:57:59.513Z,97952.59
2023-01-18T10:00:30.042Z,97945.63
2023-01-18T10:03:03.613Z,97948.16
2023-01-18T10:05:40.412Z,97945.63
2023-01-18T10:08:15.747Z,97945.63
2023-01-18T10:11:09.893Z,97943.44
2023-01-18T10:13:46.056Z,97937.59
2023-01-18T10:16:15.152Z,97939.41
2023-01-18T10:18:45.969Z,97933.88
2023-01-18T10:21:23.014Z,97925.75
2023-01-18T10:24:01.805Z,97930.94
2023-01-18T10:26:35.550Z,97925.88
2023-01-18T10:29:33.652Z,97932.66
2023-01-18T10:32:08.614Z,97908.25
2023-01-18T10:34:39.536Z,97924.06
2023-01-18T10:37:28.022Z,97918.09
2023-01-18T10:40:05.164Z,97917.41
2023-01-18T10:42:51.716Z,97938.31
2023-01-18T10:45:22.940Z,97932.28
2023-01-18T10:47:53.216Z,97925.09
2023-01-18T10:50:20.597Z,97937.06
2023-01-18T10:52:48.159Z,97937.72
2023-01-18T10:55:22.206Z,97934.75
2023-01-18T10:57:53.821Z,97948.56
2023-01-18T11:00:34.133Z,97939.69
2023-01-18T11:03:04.389Z,97928.66
2023-01-18T11:05:35.175Z,97926.75
2023-01-18T11:08:32.171Z,97929.72
2023-01-18T11:10:59.523Z,97921.50
2023-01-18T11:13:48.515Z,97938.94
2023-01-18T11:16:22.668Z,97945.72
2023-01-18T11:19:04.552Z,97941.91
2023-01-18T11:21:43.568Z,97939.38
2023-01-18T11:24:20.849Z,97944.66
2023-01-18T11:27:01.956Z,97945.63
2023-01-18T11:29:33.116Z,97952.09
2023-01-18T11:32:19.413Z,97965.81
2023-01-18T11:34:51.930Z,97949.75
2023-01-18T11:37:29.025Z,97945.63
2023-01-18T11:39:57.466Z,97947.22
2023-01-18T11:42:36.884Z,97940.22
2023-01-18T11:45:20.067Z,97923.34
2023-01-18T11:48:05.953Z,97935.16
2023-01-18T11:50:43.783Z,97914.59
2023-01-18T11:53:13.908Z,97944.81
2023-01-18T11:55:58.146Z,97936.75
2023-01-18T11:58:32.347Z,97934.97
2023-01-18T12:01:08.080Z,97936.47
2023-01-18T12:03:47.867Z,97932.22
2023-01-18T12:06:56.392Z,97936.25
2023-01-18T12:09:42.346Z,97943.75
2023-01-18T12:12:34.372Z,97927.03
2023-01-18T12:15:26.065Z,97904.50
2023-01-18T12:18:20.832Z,97914.66
2023-01-18T12:20:52.182Z,97933.28
2023-01-18T12:23:53.401Z,97933.28
2023-01-18T12:26:54.819Z,97938.56
2023-01-18T12:29:30.837Z,97935.91
2023-01-18T12:32:16.568Z,97926.91
2023-01-18T12:35:24.622Z,97940.22
2023-01-18T12:38:11.007Z,97955.78
2023-01-18T12:40:42.870Z,97939.94
2023-01-18T12:43:44.852Z,97965.31
2023-01-18T12:46:20.169Z,97962.25
2023-01-18T12:49:17.546Z,97960.34
2023-01-18T12:51:53.286Z,97962.97
2023-01-18T12:54:34.600Z,97961.19
2023-01-18T12:57:04.424Z,97967.13
2023-01-18T12:59:34.383Z,97958.44
2023-01-18T13:02:13.154Z,97950.50
2023-01-18T13:04:49.946Z,97953.03
2023-01-18T13:07:25.590Z,97954.00
2023-01-18T13:09:53.833Z,97966.03
2023-01-18T13:12:21.236Z,97960.75
2023-01-18T13:15:18.001Z,97966.78
2023-01-18T13:18:17.171Z,97956.41
2023-01-18T13:21:07.610Z,97964.22
2023-01-18T13:23:50.666Z,97953.34
2023-01-18T13:26:22.400Z,97973.53
2023-01-18T13:29:16.717Z,97963.50
2023-01-18T13:31:45.138Z,97960.34
2023-01-18T13:34:47.994Z,97969.94
2023-01-18T13:37:38.312Z,97984.84
2023-01-18T13:40:07.390Z,97980.41
2023-01-18T13:42:41.210Z,97979.56
2023-01-18T13:45:26.569Z,97969.84
2023-01-18T13:47:55.644Z,97969.41
2023-01-18T13:50:29.066Z,97969.19
2023-01-18T13:53:19.283Z,97972.38
2023-01-18T13:55:46.353Z,97968.13
2023-01-18T13:58:26.889Z,97956.84
2023-01-18T14:00:58.742Z,97955.97
2023-01-18T14:03:29.564Z,97958.63
2023-01-18T14:05:58.817Z,97961.16
2023-01-18T14:08:32.875Z,97966.13
2023-01-18T14:11:10.421Z,97964.97
2023-01-18T14:13:48.002Z,97973.53
2023-01-18T14:16:30.879Z,97976.50
2023-01-18T14:19:04.181Z,97974.47
2023-01-18T14:21:49.911Z,97957.47
2023-01-18T14:24:41.795Z,97962.00
2023-01-18T14:27:17.337Z,97964.34
2023-01-18T14:30:03.232Z,97966.84
2023-01-18T14:32:37.951Z,97972.41
2023-01-18T14:35:18.772Z,97967.72
2023-01-18T14:37:45.997Z,97969.50
2023-01-18T14:40:21.451Z,97990.53
2023-01-18T14:42:53.834Z,97991.41
2023-01-18T14:45:29.566Z,98004.31
2023-01-18T14:48:01.950Z,98011.69
2023-01-18T14:50:34.595Z,98023.03
2023-01-18T14:53:01.886Z,98020.91
2023-01-18T14:55:34.418Z,98026.09
2023-01-18T14:58:09.128Z,98014.44
2023-01-18T15:00:44.346Z,98029.78
2023-01-18T15:03:23.893Z,98028.00
2023-01-18T15:05:58.021Z,98023.66
2023-01-18T15:08:29.256Z,98027.03
2023-01-18T15:10:57.848Z,97999.53
2023-01-18T15:13:29.489Z,98025.00
2023-01-18T15:16:02.281Z,98034.34
2023-01-18T15:18:29.630Z,98023.75
2023-01-18T15:21:10.766Z,98022.06
2023-01-18T15:23:38.399Z,98020.59
2023-01-18T15:26:06.444Z,98019.41
2023-01-18T15:28:36.602Z,98024.69
2023-01-18T15:31:14.182Z,98025.88
2023-01-18T15:33:42.242Z,98026.94
2023-01-18T15:36:10.102Z,97998.38
2023-01-18T15:38:37.395Z,97996.69
2023-01-18T15:41:12.433Z,97996.25
2023-01-18T15:43:44.351Z,97988.84
2023-01-18T15:46:14.314Z,97999.22
2023-01-18T15:48:54.754Z,97987.97
2023-01-18T15:51:22.983Z,97990.63
2023-01-18T15:53:56.398Z,98016.88
2023-01-18T15:56:26.719Z,98002.81
2023-01-18T15:58:56.127Z,97996.91
2023-01-18T16:01:34.099Z,98009.59
2023-01-18T16:04:06.952Z,98002.19
2023-01-18T16:06:37.117Z,98009.59
2023-01-18T16:09:12.175Z,98023.25
2023-01-18T16:11:53.323Z,98022.06
2023-01-18T16:14:29.133Z,98034.22
2023-01-18T16:17:18.303Z,98032.53
2023-01-18T16:19:48.877Z,98029.66
2023-01-18T16:22:26.391Z,98027.13
2023-01-18T16:24:56.289Z,98037.72
2023-01-18T16:27:28.629Z,98039.09
2023-01-18T16:29:59.821Z,98040.56
2023-01-18T16:32:29.458Z,98042.25
2023-01-18T16:34:59.077Z,98052.13
2023-01-18T16:37:26.162Z,98059.63
2023-01-18T16:39:55.361Z,98056.97
2023-01-18T16:42:29.594Z,98053.38
2023-01-18T16:45:04.490Z,98060.34
2023-01-18T16:47:31.378Z,98062.91
2023-01-18T16:49:59.381Z,98070.09
2023-01-18T16:52:27.364Z,98073.06
2023-01-18T16:54:54.572Z,98081.19
2023-01-18T16:57:23.763Z,98043.53
2023-01-18T16:59:50.778Z,98077.16
2023-01-18T17:02:17.797Z,98083.84
2023-01-18T17:04:46.625Z,98093.13
2023-01-18T17:07:14.259Z,98099.59
2023-01-18T17:09:48.266Z,98102.31
2023-01-18T17:12:16.163Z,98108.63
2023-01-18T17:14:43.238Z,98110.84
2023-01-18T17:17:11.179Z,98113.69
2023-01-18T17:19:38.218Z,98117.38
2023-01-18T17:22:06.563Z,98116.84
2023-01-18T17:24:33.641Z,98127.50
2023-01-18T17:27:01.467Z,98123.91
2023-01-18T17:29:28.589Z,98127.16
2023-01-18T17:31:55.647Z,98140.56
2023-01-18T17:34:29.030Z,98140.03
2023-01-18T17:36:59.628Z,98153.63
2023-01-18T17:39:42.567Z,98158.91
2023-01-18T17:42:22.384Z,98159.72
2023-01-18T17:45:03.055Z,98167.22
2023-01-18T17:47:31.592Z,98159.28
2023-01-18T17:49:58.912Z,98166.47
2023-01-18T17:52:27.375Z,98162.78
2023-01-18T17:54:54.387Z,98174.75
2023-01-18T17:57:21.288Z,98165.00
2023-01-18T17:59:49.131Z,98172.41
2023-01-18T18:02:16.160Z,98156.75
2023-01-18T18:04:43.333Z,98175.31
2023-01-18T18:07:10.185Z,98169.41
2023-01-18T18:09:40.585Z,98185.03
2023-01-18T18:12:08.641Z,98201.91
2023-01-18T18:14:37.465Z,98192.13
2023-01-18T18:17:05.899Z,98199.66
2023-01-18T18:19:33.616Z,98198.22
2023-01-18T18:22:01.002Z,98194.34
2023-01-18T18:24:28.427Z,98195.75
2023-01-18T18:26:55.694Z,98197.53
2023-01-18T18:29:23.210Z,98190.56
2023-01-18T18:31:50.286Z,98209.03
2023-01-18T18:34:17.522Z,98218.03
2023-01-18T18:36:44.884Z,98231.22
2023-01-18T18:39:11.882Z,98223.31
2023-01-18T18:41:38.789Z,98228.97
2023-01-18T18:44:06.796Z,98249.44
2023-01-18T18:46:33.833Z,98242.56
2023-01-18T18:49:01.357Z,98241.25
2023-01-18T18:51:28.361Z,98258.88
2023-01-18T18:53:55.214Z,98265.28
2023-01-18T18:56:22.135Z,98264.25
2023-01-18T18:58:49.252Z,98278.97
2023-01-18T19:01:27.752Z,98281.16
2023-01-18T19:03:55.649Z,98285.28
2023-01-18T19:06:23.794Z,98271.13
2023-01-18T19:08:51.259Z,98289.59
2023-01-18T19:11:18.651Z,98298.78
2023-01-18T19:13:46.333Z,98295.06
2023-01-18T19:16:14.562Z,98306.91
2023-01-18T19:18:41.702Z,98307.47
2023-01-18T19:21:08.763Z,98304.03
2023-01-18T19:23:35.801Z,98315.97
2023-01-18T19:26:03.908Z,98328.56
2023-01-18T19:28:31.118Z,98337.66
2023-01-18T19:31:05.856Z,98341.59
2023-01-18T19:33:33.386Z,98353.16
2023-01-18T19:36:09.010Z,98356.03
2023-01-18T19:38:45.237Z,98351.81
2023-01-18T19:41:12.987Z,98360.97
2023-01-18T19:43:40.025Z,98366.56
2023-01-18T19:46:11.347Z,98370.31
2023-01-18T19:48:39.556Z,98365.53
2023-01-18T19:51:16.673Z,98380.59
2023-01-18T19:53:48.017Z,98390.59
2023-01-18T19:56:14.826Z,98393.31
2023-01-18T19:58:41.702Z,98399.66
2023-01-18T20:01:23.078Z,98407.34
2023-01-18T20:29:18.516Z,98462.97
2023-01-18T20:31:49.824Z,98465.16
2023-01-18T20:37:03.989Z,98481.75
2023-01-18T20:39:31.817Z,98485.69
2023-01-18T20:41:58.961Z,98487.13
2023-01-18T20:44:26.371Z,98485.88
2023-01-18T20:46:55.363Z,98481.47
2023-01-18T20:49:27.311Z,98473.41
2023-01-18T20:52:00.783Z,98478.53
2023-01-18T20:54:28.113Z,98483.63
2023-01-18T20:56:55.392Z,98477.75
2023-01-18T20:59:22.920Z,98478.53
2023-01-18T21:01:50.411Z,98485.44
2023-01-18T21:04:18.000Z,98487.28
2023-01-18T21:06:46.758Z,98484.97
2023-01-18T21:09:13.895Z,98499.09
2023-01-18T21:11:41.114Z,98509.78
2023-01-18T21:14:08.577Z,98505.53
2023-01-18T21:16:35.771Z,98501.50
2023-01-18T21:19:03.015Z,98503.63
2023-01-18T21:21:32.109Z,98518.78
2023-01-18T21:24:00.335Z,98515.41
2023-01-18T21:26:27.706Z,98523.72
2023-01-18T21:28:55.544Z,98520.81
2023-01-18T21:31:23.133Z,98530.09
2023-01-18T21:33:50.376Z,98537.56
2023-01-18T21:36:18.477Z,98531.78
2023-01-18T21:38:45.763Z,98535.81
2023-01-18T21:41:31.634Z,98552.53
2023-01-18T21:44:17.555Z,98556.50
2023-01-18T21:46:46.386Z,98573.13
2023-01-18T21:49:43.308Z,98577.59
2023-01-18T21:52:33.400Z,98582.31
2023-01-18T21:55:00.780Z,98585.16
2023-01-18T21:57:27.874Z,98583.38
2023-01-18T21:59:54.881Z,98589.88
2023-01-18T22:02:22.680Z,98592.50
2023-01-18T22:05:03.748Z,98585.78
2023-01-18T22:07:34.173Z,98589.00
2023-01-18T22:10:06.861Z,98593.09
2023-01-18T22:12:36.307Z,98608.56
2023-01-18T22:15:07.386Z,98606.56
2023-01-18T22:17:34.609Z,98630.63
2023-01-18T22:20:02.203Z,98633.03
2023-01-18T22:22:29.468Z,98641.56
2023-01-18T22:24:57.165Z,98641.16
2023-01-18T22:27:24.178Z,98637.88
2023-01-18T22:29:51.422Z,98645.75
2023-01-18T22:32:18.440Z,98649.19
2023-01-18T22:34:45.556Z,98651.38
2023-01-18T22:37:12.549Z,98658.25
2023-01-18T22:39:39.663Z,98660.06
2023-01-18T22:42:06.780Z,98670.56
2023-01-18T22:44:33.923Z,98669.50
2023-01-18T22:47:01.401Z,98673.06
2023-01-18T22:49:28.398Z,98679.41
2023-01-18T22:51:55.432Z,98676.19
2023-01-18T22:54:23.171Z,98678.28
2023-01-18T22:56:50.375Z,98680.84
2023-01-18T22:59:17.591Z,98683.47
2023-01-18T23:01:44.999Z,98681.72
2023-01-18T23:04:12.424Z,98679.16
2023-01-18T23:06:42.657Z,98680.88
2023-01-18T23:09:10.543Z,98683.63
2023-01-18T23:11:38.658Z,98694.31
2023-01-18T23:14:24.472Z,98710.13
2023-01-18T23:17:10.594Z,98705.91
2023-01-18T23:19:37.770Z,98714.78
2023-01-18T23:22:07.364Z,98723.56
2023-01-18T23:24:36.810Z,98714.09
2023-01-18T23:27:06.422Z,98719.41
2023-01-18T23:29:33.968Z,98714.22
2023-01-18T23:32:01.118Z,98718.63
2023-01-18T23:34:28.390Z,98724.91
2023-01-18T23:36:55.405Z,98717.16
2023-01-18T23:39:41.353Z,98726.78
2023-01-18T23:42:27.375Z,98723.63
2023-01-18T23:45:13.157Z,98726.44
2023-01-18T23:47:59.407Z,98737.09
2023-01-18T23:50:45.370Z,98735.63
2023-01-18T23:53:32.519Z,98737.78
2023-01-18T23:56:00.245Z,98734.69
2023-01-18T23:58:28.142Z,98732.38
